sensor_id;sensor_type;location;lat;lon;timestamp;temperature;humidity
59505;DHT22;45321;53.200;5.814;2023-03-14T00:00:56;10.60;76.30
59505;DHT22;45321;53.200;5.814;2023-03-14T00:03:22;10.60;76.30
59505;DHT22;45321;53.200;5.814;2023-03-14T00:05:48;10.60;76.40
59505;DHT22;45321;53.200;5.814;2023-03-14T00:08:14;10.50;76.50
59505;DHT22;45321;53.200;5.814;2023-03-14T00:10:40;10.50;76.70
59505;DHT22;45321;53.200;5.814;2023-03-14T00:13:06;10.50;76.80
59505;DHT22;45321;53.200;5.814;2023-03-14T00:15:35;10.50;76.90
59505;DHT22;45321;53.200;5.814;2023-03-14T00:18:00;10.50;77.00
59505;DHT22;45321;53.200;5.814;2023-03-14T00:20:26;10.50;77.30
59505;DHT22;45321;53.200;5.814;2023-03-14T00:22:52;10.40;77.50
59505;DHT22;45321;53.200;5.814;2023-03-14T00:25:18;10.40;77.70
59505;DHT22;45321;53.200;5.814;2023-03-14T00:27:44;10.50;77.90
59505;DHT22;45321;53.200;5.814;2023-03-14T00:30:10;10.50;77.90
59505;DHT22;45321;53.200;5.814;2023-03-14T00:32:36;10.40;77.90
59505;DHT22;45321;53.200;5.814;2023-03-14T00:35:02;10.50;78.00
59505;DHT22;45321;53.200;5.814;2023-03-14T00:37:28;10.40;78.00
59505;DHT22;45321;53.200;5.814;2023-03-14T00:39:54;10.40;78.10
59505;DHT22;45321;53.200;5.814;2023-03-14T00:42:20;10.30;78.20
59505;DHT22;45321;53.200;5.814;2023-03-14T00:44:46;10.30;78.20
59505;DHT22;45321;53.200;5.814;2023-03-14T00:47:12;10.30;78.50
59505;DHT22;45321;53.200;5.814;2023-03-14T00:49:38;10.30;78.50
59505;DHT22;45321;53.200;5.814;2023-03-14T00:52:04;10.30;78.60
59505;DHT22;45321;53.200;5.814;2023-03-14T00:54:30;10.20;78.70
59505;DHT22;45321;53.200;5.814;2023-03-14T00:56:56;10.10;78.70
59505;DHT22;45321;53.200;5.814;2023-03-14T00:59:22;10.10;79.00
59505;DHT22;45321;53.200;5.814;2023-03-14T01:01:47;10.00;79.10
59505;DHT22;45321;53.200;5.814;2023-03-14T01:04:13;10.10;79.40
59505;DHT22;45321;53.200;5.814;2023-03-14T01:06:39;10.10;79.70
59505;DHT22;45321;53.200;5.814;2023-03-14T01:09:05;10.10;79.80
59505;DHT22;45321;53.200;5.814;2023-03-14T01:11:33;10.10;79.90
59505;DHT22;45321;53.200;5.814;2023-03-14T01:14:00;10.10;80.30
59505;DHT22;45321;53.200;5.814;2023-03-14T01:16:28;10.10;80.40
59505;DHT22;45321;53.200;5.814;2023-03-14T01:18:54;10.10;80.70
59505;DHT22;45321;53.200;5.814;2023-03-14T01:21:23;10.10;81.00
59505;DHT22;45321;53.200;5.814;2023-03-14T01:23:50;10.20;81.10
59505;DHT22;45321;53.200;5.814;2023-03-14T01:26:18;10.20;81.10
59505;DHT22;45321;53.200;5.814;2023-03-14T01:28:45;10.20;81.20
59505;DHT22;45321;53.200;5.814;2023-03-14T01:31:11;10.20;81.40
59505;DHT22;45321;53.200;5.814;2023-03-14T01:33:38;10.20;81.40
59505;DHT22;45321;53.200;5.814;2023-03-14T01:36:05;10.20;81.60
59505;DHT22;45321;53.200;5.814;2023-03-14T01:38:32;10.20;81.70
59505;DHT22;45321;53.200;5.814;2023-03-14T01:40:58;10.20;81.80
59505;DHT22;45321;53.200;5.814;2023-03-14T01:43:25;10.10;82.00
59505;DHT22;45321;53.200;5.814;2023-03-14T01:46:20;10.10;82.10
59505;DHT22;45321;53.200;5.814;2023-03-14T01:48:57;10.10;82.30
59505;DHT22;45321;53.200;5.814;2023-03-14T01:54:02;10.10;82.60
59505;DHT22;45321;53.200;5.814;2023-03-14T01:56:31;10.00;82.70
59505;DHT22;45321;53.200;5.814;2023-03-14T01:58:58;10.00;82.90
59505;DHT22;45321;53.200;5.814;2023-03-14T02:01:26;10.00;82.90
59505;DHT22;45321;53.200;5.814;2023-03-14T02:03:55;10.00;83.20
59505;DHT22;45321;53.200;5.814;2023-03-14T02:06:24;9.90;83.30
59505;DHT22;45321;53.200;5.814;2023-03-14T02:08:52;9.90;83.50
59505;DHT22;45321;53.200;5.814;2023-03-14T02:11:18;9.90;83.60
59505;DHT22;45321;53.200;5.814;2023-03-14T02:13:45;9.80;83.70
59505;DHT22;45321;53.200;5.814;2023-03-14T02:16:11;9.80;83.90
59505;DHT22;45321;53.200;5.814;2023-03-14T02:18:37;9.80;83.90
59505;DHT22;45321;53.200;5.814;2023-03-14T02:21:32;9.80;84.00
59505;DHT22;45321;53.200;5.814;2023-03-14T02:25:01;9.80;84.30
59505;DHT22;45321;53.200;5.814;2023-03-14T02:27:13;9.80;84.50
59505;DHT22;45321;53.200;5.814;2023-03-14T02:29:49;9.80;84.60
59505;DHT22;45321;53.200;5.814;2023-03-14T02:32:17;9.80;84.80
59505;DHT22;45321;53.200;5.814;2023-03-14T02:34:45;9.80;84.80
59505;DHT22;45321;53.200;5.814;2023-03-14T02:37:14;9.80;84.90
59505;DHT22;45321;53.200;5.814;2023-03-14T02:39:44;9.80;84.90
59505;DHT22;45321;53.200;5.814;2023-03-14T02:42:12;9.80;84.90
59505;DHT22;45321;53.200;5.814;2023-03-14T02:44:51;9.80;84.90
59505;DHT22;45321;53.200;5.814;2023-03-14T02:47:17;9.70;85.20
59505;DHT22;45321;53.200;5.814;2023-03-14T02:49:44;9.80;85.30
59505;DHT22;45321;53.200;5.814;2023-03-14T02:52:09;9.80;85.60
59505;DHT22;45321;53.200;5.814;2023-03-14T02:54:35;9.70;86.10
59505;DHT22;45321;53.200;5.814;2023-03-14T02:57:03;9.70;86.30
59505;DHT22;45321;53.200;5.814;2023-03-14T02:59:28;9.70;86.40
59505;DHT22;45321;53.200;5.814;2023-03-14T03:01:54;9.60;86.60
59505;DHT22;45321;53.200;5.814;2023-03-14T03:04:20;9.60;86.70
59505;DHT22;45321;53.200;5.814;2023-03-14T03:06:45;9.60;86.60
59505;DHT22;45321;53.200;5.814;2023-03-14T03:09:11;9.60;87.00
59505;DHT22;45321;53.200;5.814;2023-03-14T03:11:37;9.60;86.90
59505;DHT22;45321;53.200;5.814;2023-03-14T03:14:02;9.60;86.90
59505;DHT22;45321;53.200;5.814;2023-03-14T03:16:28;9.60;87.00
59505;DHT22;45321;53.200;5.814;2023-03-14T03:18:53;9.60;87.10
59505;DHT22;45321;53.200;5.814;2023-03-14T03:21:19;9.60;87.00
59505;DHT22;45321;53.200;5.814;2023-03-14T03:23:49;9.50;87.00
59505;DHT22;45321;53.200;5.814;2023-03-14T03:26:14;9.60;86.90
59505;DHT22;45321;53.200;5.814;2023-03-14T03:28:40;9.60;86.80
59505;DHT22;45321;53.200;5.814;2023-03-14T03:31:08;9.60;86.70
59505;DHT22;45321;53.200;5.814;2023-03-14T03:33:34;9.60;86.70
59505;DHT22;45321;53.200;5.814;2023-03-14T03:35:59;9.60;86.60
59505;DHT22;45321;53.200;5.814;2023-03-14T03:38:25;9.60;86.50
59505;DHT22;45321;53.200;5.814;2023-03-14T03:40:51;9.60;86.50
59505;DHT22;45321;53.200;5.814;2023-03-14T03:43:16;9.60;86.50
59505;DHT22;45321;53.200;5.814;2023-03-14T03:45:43;9.60;86.50
59505;DHT22;45321;53.200;5.814;2023-03-14T03:48:09;9.60;86.60
59505;DHT22;45321;53.200;5.814;2023-03-14T03:50:38;9.60;86.60
59505;DHT22;45321;53.200;5.814;2023-03-14T03:53:08;9.60;86.50
59505;DHT22;45321;53.200;5.814;2023-03-14T03:55:34;9.60;86.50
59505;DHT22;45321;53.200;5.814;2023-03-14T03:58:00;9.60;86.70
59505;DHT22;45321;53.200;5.814;2023-03-14T04:00:25;9.50;86.60
59505;DHT22;45321;53.200;5.814;2023-03-14T04:02:51;9.50;86.50
59505;DHT22;45321;53.200;5.814;2023-03-14T04:05:17;9.60;86.60
59505;DHT22;45321;53.200;5.814;2023-03-14T04:07:42;9.50;86.60
59505;DHT22;45321;53.200;5.814;2023-03-14T04:10:08;9.60;86.50
59505;DHT22;45321;53.200;5.814;2023-03-14T04:12:34;9.50;86.50
59505;DHT22;45321;53.200;5.814;2023-03-14T04:15:00;9.60;86.50
59505;DHT22;45321;53.200;5.814;2023-03-14T04:17:26;9.50;86.60
59505;DHT22;45321;53.200;5.814;2023-03-14T04:19:51;9.60;86.50
59505;DHT22;45321;53.200;5.814;2023-03-14T04:22:19;9.50;86.50
59505;DHT22;45321;53.200;5.814;2023-03-14T04:24:45;9.50;86.90
59505;DHT22;45321;53.200;5.814;2023-03-14T04:27:11;9.50;87.60
59505;DHT22;45321;53.200;5.814;2023-03-14T04:29:37;9.40;88.10
59505;DHT22;45321;53.200;5.814;2023-03-14T04:32:02;9.30;88.60
59505;DHT22;45321;53.200;5.814;2023-03-14T04:34:28;9.30;89.00
59505;DHT22;45321;53.200;5.814;2023-03-14T04:36:54;9.30;89.30
59505;DHT22;45321;53.200;5.814;2023-03-14T04:39:19;9.10;89.80
59505;DHT22;45321;53.200;5.814;2023-03-14T04:41:45;9.00;90.20
59505;DHT22;45321;53.200;5.814;2023-03-14T04:44:11;9.00;90.80
59505;DHT22;45321;53.200;5.814;2023-03-14T04:46:37;9.00;90.80
59505;DHT22;45321;53.200;5.814;2023-03-14T04:49:02;9.00;91.40
59505;DHT22;45321;53.200;5.814;2023-03-14T04:51:28;8.90;91.30
59505;DHT22;45321;53.200;5.814;2023-03-14T04:53:54;8.90;91.60
59505;DHT22;45321;53.200;5.814;2023-03-14T04:56:20;8.90;91.60
59505;DHT22;45321;53.200;5.814;2023-03-14T04:58:46;8.80;91.90
59505;DHT22;45321;53.200;5.814;2023-03-14T05:01:12;8.80;92.00
59505;DHT22;45321;53.200;5.814;2023-03-14T05:03:38;8.80;92.00
59505;DHT22;45321;53.200;5.814;2023-03-14T05:06:05;8.80;92.40
59505;DHT22;45321;53.200;5.814;2023-03-14T05:08:31;8.80;92.50
59505;DHT22;45321;53.200;5.814;2023-03-14T05:10:57;8.80;92.70
59505;DHT22;45321;53.200;5.814;2023-03-14T05:13:23;8.80;92.70
59505;DHT22;45321;53.200;5.814;2023-03-14T05:15:49;8.80;92.80
59505;DHT22;45321;53.200;5.814;2023-03-14T05:18:16;8.80;92.70
59505;DHT22;45321;53.200;5.814;2023-03-14T05:20:42;8.80;92.80
59505;DHT22;45321;53.200;5.814;2023-03-14T05:23:10;8.80;93.10
59505;DHT22;45321;53.200;5.814;2023-03-14T05:25:36;8.80;92.90
59505;DHT22;45321;53.200;5.814;2023-03-14T05:28:02;8.80;93.10
59505;DHT22;45321;53.200;5.814;2023-03-14T05:30:28;8.80;93.10
59505;DHT22;45321;53.200;5.814;2023-03-14T05:32:54;8.80;93.10
59505;DHT22;45321;53.200;5.814;2023-03-14T05:35:19;8.80;93.20
59505;DHT22;45321;53.200;5.814;2023-03-14T05:37:45;8.70;93.30
59505;DHT22;45321;53.200;5.814;2023-03-14T05:40:13;8.70;93.40
59505;DHT22;45321;53.200;5.814;2023-03-14T05:42:38;8.70;93.50
59505;DHT22;45321;53.200;5.814;2023-03-14T05:45:04;8.60;93.70
59505;DHT22;45321;53.200;5.814;2023-03-14T05:47:30;8.70;93.60
59505;DHT22;45321;53.200;5.814;2023-03-14T05:49:56;8.70;93.50
59505;DHT22;45321;53.200;5.814;2023-03-14T05:52:21;8.60;93.60
59505;DHT22;45321;53.200;5.814;2023-03-14T05:54:47;8.60;93.40
59505;DHT22;45321;53.200;5.814;2023-03-14T05:57:13;8.60;93.40
59505;DHT22;45321;53.200;5.814;2023-03-14T05:59:39;8.40;93.30
59505;DHT22;45321;53.200;5.814;2023-03-14T06:02:04;8.30;92.90
59505;DHT22;45321;53.200;5.814;2023-03-14T06:04:30;8.20;92.50
59505;DHT22;45321;53.200;5.814;2023-03-14T06:06:56;8.10;92.70
59505;DHT22;45321;53.200;5.814;2023-03-14T06:09:22;8.00;92.20
59505;DHT22;45321;53.200;5.814;2023-03-14T06:11:49;7.80;92.00
59505;DHT22;45321;53.200;5.814;2023-03-14T06:14:14;7.70;91.80
59505;DHT22;45321;53.200;5.814;2023-03-14T06:16:40;7.60;91.80
59505;DHT22;45321;53.200;5.814;2023-03-14T06:19:06;7.40;91.70
59505;DHT22;45321;53.200;5.814;2023-03-14T06:21:31;7.30;91.60
59505;DHT22;45321;53.200;5.814;2023-03-14T06:23:57;7.30;91.60
59505;DHT22;45321;53.200;5.814;2023-03-14T06:26:23;7.20;91.50
59505;DHT22;45321;53.200;5.814;2023-03-14T06:28:49;7.00;91.20
59505;DHT22;45321;53.200;5.814;2023-03-14T06:31:16;6.90;91.50
59505;DHT22;45321;53.200;5.814;2023-03-14T06:33:42;6.90;91.50
59505;DHT22;45321;53.200;5.814;2023-03-14T06:36:08;6.80;91.40
59505;DHT22;45321;53.200;5.814;2023-03-14T06:38:34;6.70;90.90
59505;DHT22;45321;53.200;5.814;2023-03-14T06:41:04;6.60;90.70
59505;DHT22;45321;53.200;5.814;2023-03-14T06:43:30;6.50;90.90
59505;DHT22;45321;53.200;5.814;2023-03-14T06:45:56;6.40;90.80
59505;DHT22;45321;53.200;5.814;2023-03-14T06:48:21;6.40;91.00
59505;DHT22;45321;53.200;5.814;2023-03-14T06:50:50;6.30;90.90
59505;DHT22;45321;53.200;5.814;2023-03-14T06:53:16;6.30;91.00
59505;DHT22;45321;53.200;5.814;2023-03-14T06:55:41;6.30;91.30
59505;DHT22;45321;53.200;5.814;2023-03-14T06:58:08;6.20;91.20
59505;DHT22;45321;53.200;5.814;2023-03-14T07:00:34;6.20;91.30
59505;DHT22;45321;53.200;5.814;2023-03-14T07:03:00;6.20;91.60
59505;DHT22;45321;53.200;5.814;2023-03-14T07:05:26;6.30;91.80
59505;DHT22;45321;53.200;5.814;2023-03-14T07:07:52;6.30;91.50
59505;DHT22;45321;53.200;5.814;2023-03-14T07:10:18;6.20;91.20
59505;DHT22;45321;53.200;5.814;2023-03-14T07:12:44;6.20;91.00
59505;DHT22;45321;53.200;5.814;2023-03-14T07:15:09;6.10;91.00
59505;DHT22;45321;53.200;5.814;2023-03-14T07:17:35;6.10;91.20
59505;DHT22;45321;53.200;5.814;2023-03-14T07:20:01;6.10;91.10
59505;DHT22;45321;53.200;5.814;2023-03-14T07:22:29;6.20;91.10
59505;DHT22;45321;53.200;5.814;2023-03-14T07:24:55;6.20;91.50
59505;DHT22;45321;53.200;5.814;2023-03-14T07:27:20;6.20;91.60
59505;DHT22;45321;53.200;5.814;2023-03-14T07:29:46;6.30;91.60
59505;DHT22;45321;53.200;5.814;2023-03-14T07:32:12;6.30;91.00
59505;DHT22;45321;53.200;5.814;2023-03-14T07:34:41;6.30;91.10
59505;DHT22;45321;53.200;5.814;2023-03-14T07:37:07;6.30;91.30
59505;DHT22;45321;53.200;5.814;2023-03-14T07:39:33;6.30;90.70
59505;DHT22;45321;53.200;5.814;2023-03-14T07:41:59;6.30;90.40
59505;DHT22;45321;53.200;5.814;2023-03-14T07:44:24;6.30;90.50
59505;DHT22;45321;53.200;5.814;2023-03-14T07:46:50;6.30;90.70
59505;DHT22;45321;53.200;5.814;2023-03-14T07:49:16;6.30;90.80
59505;DHT22;45321;53.200;5.814;2023-03-14T07:51:42;6.40;91.00
59505;DHT22;45321;53.200;5.814;2023-03-14T07:54:09;6.50;90.80
59505;DHT22;45321;53.200;5.814;2023-03-14T07:56:35;6.50;90.50
59505;DHT22;45321;53.200;5.814;2023-03-14T07:59:01;6.50;90.10
59505;DHT22;45321;53.200;5.814;2023-03-14T08:01:27;6.50;90.30
59505;DHT22;45321;53.200;5.814;2023-03-14T08:03:52;6.60;90.20
59505;DHT22;45321;53.200;5.814;2023-03-14T08:06:18;6.60;90.20
59505;DHT22;45321;53.200;5.814;2023-03-14T08:08:44;6.60;90.10
59505;DHT22;45321;53.200;5.814;2023-03-14T08:11:10;6.60;89.60
59505;DHT22;45321;53.200;5.814;2023-03-14T08:13:37;6.60;89.30
59505;DHT22;45321;53.200;5.814;2023-03-14T08:16:04;6.60;88.70
59505;DHT22;45321;53.200;5.814;2023-03-14T08:18:30;6.60;88.90
59505;DHT22;45321;53.200;5.814;2023-03-14T08:20:56;6.60;89.00
59505;DHT22;45321;53.200;5.814;2023-03-14T08:23:21;6.60;88.20
59505;DHT22;45321;53.200;5.814;2023-03-14T08:25:51;6.80;88.50
59505;DHT22;45321;53.200;5.814;2023-03-14T08:28:17;6.80;88.30
59505;DHT22;45321;53.200;5.814;2023-03-14T08:30:44;6.90;88.10
59505;DHT22;45321;53.200;5.814;2023-03-14T08:33:09;7.00;86.80
59505;DHT22;45321;53.200;5.814;2023-03-14T08:35:37;7.10;86.70
59505;DHT22;45321;53.200;5.814;2023-03-14T08:38:03;7.10;86.30
59505;DHT22;45321;53.200;5.814;2023-03-14T08:40:29;7.30;85.90
59505;DHT22;45321;53.200;5.814;2023-03-14T08:42:54;7.30;86.30
59505;DHT22;45321;53.200;5.814;2023-03-14T08:45:20;7.40;85.70
59505;DHT22;45321;53.200;5.814;2023-03-14T08:47:47;7.40;85.80
59505;DHT22;45321;53.200;5.814;2023-03-14T08:50:13;7.50;85.20
59505;DHT22;45321;53.200;5.814;2023-03-14T08:52:39;7.60;85.40
59505;DHT22;45321;53.200;5.814;2023-03-14T08:55:08;7.60;84.60
59505;DHT22;45321;53.200;5.814;2023-03-14T08:57:34;7.50;84.70
59505;DHT22;45321;53.200;5.814;2023-03-14T09:00:00;7.50;84.30
59505;DHT22;45321;53.200;5.814;2023-03-14T09:02:26;7.50;83.40
59505;DHT22;45321;53.200;5.814;2023-03-14T09:04:52;7.50;81.90
59505;DHT22;45321;53.200;5.814;2023-03-14T09:07:19;7.50;81.50
59505;DHT22;45321;53.200;5.814;2023-03-14T09:09:45;7.40;80.70
59505;DHT22;45321;53.200;5.814;2023-03-14T09:12:11;7.40;79.60
59505;DHT22;45321;53.200;5.814;2023-03-14T09:14:37;7.50;79.00
59505;DHT22;45321;53.200;5.814;2023-03-14T09:17:04;7.60;79.00
59505;DHT22;45321;53.200;5.814;2023-03-14T09:19:29;7.50;79.30
59505;DHT22;45321;53.200;5.814;2023-03-14T09:21:55;7.50;78.90
59505;DHT22;45321;53.200;5.814;2023-03-14T09:24:21;7.60;78.80
59505;DHT22;45321;53.200;5.814;2023-03-14T09:26:47;7.60;77.30
59505;DHT22;45321;53.200;5.814;2023-03-14T09:29:13;7.60;77.00
59505;DHT22;45321;53.200;5.814;2023-03-14T09:31:38;7.70;76.40
59505;DHT22;45321;53.200;5.814;2023-03-14T09:34:04;7.80;76.70
59505;DHT22;45321;53.200;5.814;2023-03-14T09:36:30;7.80;75.70
59505;DHT22;45321;53.200;5.814;2023-03-14T09:38:56;7.90;74.90
59505;DHT22;45321;53.200;5.814;2023-03-14T09:41:26;7.90;72.80
59505;DHT22;45321;53.200;5.814;2023-03-14T09:44:16;8.00;73.00
59505;DHT22;45321;53.200;5.814;2023-03-14T09:46:47;8.00;72.70
59505;DHT22;45321;53.200;5.814;2023-03-14T09:49:25;8.10;72.80
59505;DHT22;45321;53.200;5.814;2023-03-14T09:51:54;8.20;72.20
59505;DHT22;45321;53.200;5.814;2023-03-14T09:56:55;8.30;70.70
59505;DHT22;45321;53.200;5.814;2023-03-14T09:59:21;8.30;68.40
59505;DHT22;45321;53.200;5.814;2023-03-14T10:01:50;8.30;69.30
59505;DHT22;45321;53.200;5.814;2023-03-14T10:04:21;8.30;68.30
59505;DHT22;45321;53.200;5.814;2023-03-14T10:06:48;8.30;68.50
59505;DHT22;45321;53.200;5.814;2023-03-14T10:09:24;8.30;66.80
59505;DHT22;45321;53.200;5.814;2023-03-14T10:11:55;8.30;67.40
59505;DHT22;45321;53.200;5.814;2023-03-14T10:14:31;8.30;67.10
59505;DHT22;45321;53.200;5.814;2023-03-14T10:17:05;8.40;66.70
59505;DHT22;45321;53.200;5.814;2023-03-14T10:19:32;8.40;65.50
59505;DHT22;45321;53.200;5.814;2023-03-14T10:22:01;8.60;66.10
59505;DHT22;45321;53.200;5.814;2023-03-14T10:24:33;8.70;63.70
59505;DHT22;45321;53.200;5.814;2023-03-14T10:27:05;8.80;64.40
59505;DHT22;45321;53.200;5.814;2023-03-14T10:29:33;8.80;63.10
59505;DHT22;45321;53.200;5.814;2023-03-14T10:32:04;8.80;63.50
59505;DHT22;45321;53.200;5.814;2023-03-14T10:34:34;8.90;61.40
59505;DHT22;45321;53.200;5.814;2023-03-14T10:37:16;9.00;62.30
59505;DHT22;45321;53.200;5.814;2023-03-14T10:39:48;9.20;62.40
59505;DHT22;45321;53.200;5.814;2023-03-14T10:44:51;9.30;60.00
59505;DHT22;45321;53.200;5.814;2023-03-14T10:47:22;9.30;58.50
59505;DHT22;45321;53.200;5.814;2023-03-14T10:49:48;9.20;61.10
59505;DHT22;45321;53.200;5.814;2023-03-14T10:52:26;9.20;57.90
59505;DHT22;45321;53.200;5.814;2023-03-14T10:55:02;9.30;56.50
59505;DHT22;45321;53.200;5.814;2023-03-14T10:57:28;9.30;54.90
59505;DHT22;45321;53.200;5.814;2023-03-14T10:59:55;9.40;54.90
59505;DHT22;45321;53.200;5.814;2023-03-14T11:02:46;9.60;55.90
59505;DHT22;45321;53.200;5.814;2023-03-14T11:06:16;9.80;54.40
59505;DHT22;45321;53.200;5.814;2023-03-14T11:08:55;9.90;54.20
59505;DHT22;45321;53.200;5.814;2023-03-14T11:11:19;10.20;54.70
59505;DHT22;45321;53.200;5.814;2023-03-14T11:13:55;10.50;52.50
59505;DHT22;45321;53.200;5.814;2023-03-14T11:19:00;10.90;52.30
59505;DHT22;45321;53.200;5.814;2023-03-14T11:21:35;11.10;50.40
59505;DHT22;45321;53.200;5.814;2023-03-14T11:26:34;11.50;50.30
59505;DHT22;45321;53.200;5.814;2023-03-14T11:31:44;11.70;50.20
59505;DHT22;45321;53.200;5.814;2023-03-14T11:34:25;11.80;49.80
59505;DHT22;45321;53.200;5.814;2023-03-14T11:37:00;11.80;51.20
59505;DHT22;45321;53.200;5.814;2023-03-14T11:39:32;11.70;49.80
59505;DHT22;45321;53.200;5.814;2023-03-14T11:42:00;11.80;50.40
59505;DHT22;45321;53.200;5.814;2023-03-14T11:44:31;11.50;51.40
59505;DHT22;45321;53.200;5.814;2023-03-14T11:49:53;11.30;53.30
59505;DHT22;45321;53.200;5.814;2023-03-14T11:55:01;11.60;54.20
59505;DHT22;45321;53.200;5.814;2023-03-14T11:57:28;11.70;52.90
59505;DHT22;45321;53.200;5.814;2023-03-14T12:13:10;11.60;50.00
59505;DHT22;45321;53.200;5.814;2023-03-14T12:15:42;11.50;49.00
59505;DHT22;45321;53.200;5.814;2023-03-14T12:18:27;11.40;49.90
59505;DHT22;45321;53.200;5.814;2023-03-14T12:20:59;11.50;50.50
59505;DHT22;45321;53.200;5.814;2023-03-14T12:23:27;11.70;49.60
59505;DHT22;45321;53.200;5.814;2023-03-14T12:26:16;11.80;48.30
59505;DHT22;45321;53.200;5.814;2023-03-14T12:28:44;11.90;46.80
59505;DHT22;45321;53.200;5.814;2023-03-14T12:42:12;13.30;44.50
59505;DHT22;45321;53.200;5.814;2023-03-14T12:44:46;13.10;43.50
59505;DHT22;45321;53.200;5.814;2023-03-14T12:49:45;12.90;44.50
59505;DHT22;45321;53.200;5.814;2023-03-14T12:52:22;12.90;44.20
59505;DHT22;45321;53.200;5.814;2023-03-14T12:55:33;13.00;43.00
59505;DHT22;45321;53.200;5.814;2023-03-14T13:00:41;13.50;43.00
59505;DHT22;45321;53.200;5.814;2023-03-14T13:03:19;13.80;41.10
59505;DHT22;45321;53.200;5.814;2023-03-14T13:06:00;14.00;40.00
59505;DHT22;45321;53.200;5.814;2023-03-14T13:08:42;14.20;39.20
59505;DHT22;45321;53.200;5.814;2023-03-14T13:11:11;14.30;39.20
59505;DHT22;45321;53.200;5.814;2023-03-14T13:13:45;14.30;40.90
59505;DHT22;45321;53.200;5.814;2023-03-14T13:16:18;14.70;39.90
59505;DHT22;45321;53.200;5.814;2023-03-14T13:18:47;15.30;40.40
59505;DHT22;45321;53.200;5.814;2023-03-14T13:21:19;15.90;40.90
59505;DHT22;45321;53.200;5.814;2023-03-14T13:24:03;16.30;38.20
59505;DHT22;45321;53.200;5.814;2023-03-14T13:26:41;16.20;38.90
59505;DHT22;45321;53.200;5.814;2023-03-14T13:31:50;16.00;37.50
59505;DHT22;45321;53.200;5.814;2023-03-14T13:34:16;16.10;38.10
59505;DHT22;45321;53.200;5.814;2023-03-14T13:36:42;16.30;36.90
59505;DHT22;45321;53.200;5.814;2023-03-14T13:39:18;16.70;36.70
59505;DHT22;45321;53.200;5.814;2023-03-14T13:41:45;16.80;35.00
59505;DHT22;45321;53.200;5.814;2023-03-14T13:44:17;16.20;35.80
59505;DHT22;45321;53.200;5.814;2023-03-14T13:46:45;15.90;36.10
59505;DHT22;45321;53.200;5.814;2023-03-14T13:49:15;16.30;35.90
59505;DHT22;45321;53.200;5.814;2023-03-14T13:51:44;16.90;35.50
59505;DHT22;45321;53.200;5.814;2023-03-14T13:54:18;17.50;34.20
59505;DHT22;45321;53.200;5.814;2023-03-14T13:56:44;18.20;35.40
59505;DHT22;45321;53.200;5.814;2023-03-14T13:59:28;18.40;32.90
59505;DHT22;45321;53.200;5.814;2023-03-14T14:01:55;18.20;33.20
59505;DHT22;45321;53.200;5.814;2023-03-14T14:04:23;18.20;32.60
59505;DHT22;45321;53.200;5.814;2023-03-14T14:06:58;18.40;31.80
59505;DHT22;45321;53.200;5.814;2023-03-14T14:09:29;18.00;31.60
59505;DHT22;45321;53.200;5.814;2023-03-14T14:14:39;17.40;33.50
59505;DHT22;45321;53.200;5.814;2023-03-14T14:17:09;17.80;33.00
59505;DHT22;45321;53.200;5.814;2023-03-14T14:19:36;17.90;33.10
59505;DHT22;45321;53.200;5.814;2023-03-14T14:22:04;17.40;32.90
59505;DHT22;45321;53.200;5.814;2023-03-14T14:24:33;17.00;34.80
59505;DHT22;45321;53.200;5.814;2023-03-14T14:27:23;16.70;34.00
59505;DHT22;45321;53.200;5.814;2023-03-14T14:32:42;16.00;37.80
59505;DHT22;45321;53.200;5.814;2023-03-14T14:35:10;16.40;36.40
59505;DHT22;45321;53.200;5.814;2023-03-14T14:37:48;17.00;35.60
59505;DHT22;45321;53.200;5.814;2023-03-14T14:40:43;17.20;35.50
59505;DHT22;45321;53.200;5.814;2023-03-14T14:43:17;17.30;36.10
59505;DHT22;45321;53.200;5.814;2023-03-14T14:45:43;17.60;34.00
59505;DHT22;45321;53.200;5.814;2023-03-14T14:48:21;17.70;34.50
59505;DHT22;45321;53.200;5.814;2023-03-14T14:55:54;18.40;34.00
59505;DHT22;45321;53.200;5.814;2023-03-14T14:58:32;18.90;33.00
59505;DHT22;45321;53.200;5.814;2023-03-14T15:00:59;19.20;33.00
59505;DHT22;45321;53.200;5.814;2023-03-14T15:03:30;19.60;32.20
59505;DHT22;45321;53.200;5.814;2023-03-14T15:05:56;20.20;31.20
59505;DHT22;45321;53.200;5.814;2023-03-14T15:08:24;20.60;29.80
59505;DHT22;45321;53.200;5.814;2023-03-14T15:10:50;21.00;30.10
59505;DHT22;45321;53.200;5.814;2023-03-14T15:13:16;20.70;28.40
59505;DHT22;45321;53.200;5.814;2023-03-14T15:15:42;19.50;29.70
59505;DHT22;45321;53.200;5.814;2023-03-14T15:18:16;18.20;31.40
59505;DHT22;45321;53.200;5.814;2023-03-14T15:20:44;16.90;31.50
59505;DHT22;45321;53.200;5.814;2023-03-14T15:23:14;15.80;35.80
59505;DHT22;45321;53.200;5.814;2023-03-14T15:25:40;14.80;42.00
59505;DHT22;45321;53.200;5.814;2023-03-14T15:28:17;14.00;44.20
59505;DHT22;45321;53.200;5.814;2023-03-14T15:30:55;13.80;46.60
59505;DHT22;45321;53.200;5.814;2023-03-14T15:33:28;14.50;44.60
59505;DHT22;45321;53.200;5.814;2023-03-14T15:35:54;14.70;44.30
59505;DHT22;45321;53.200;5.814;2023-03-14T15:38:21;14.80;44.20
59505;DHT22;45321;53.200;5.814;2023-03-14T15:40:49;15.00;43.90
59505;DHT22;45321;53.200;5.814;2023-03-14T15:43:15;15.70;43.00
59505;DHT22;45321;53.200;5.814;2023-03-14T15:45:41;16.20;40.80
59505;DHT22;45321;53.200;5.814;2023-03-14T15:48:14;16.70;39.10
59505;DHT22;45321;53.200;5.814;2023-03-14T15:50:40;17.40;38.50
59505;DHT22;45321;53.200;5.814;2023-03-14T15:53:06;18.40;36.80
59505;DHT22;45321;53.200;5.814;2023-03-14T15:55:32;19.20;33.40
59505;DHT22;45321;53.200;5.814;2023-03-14T15:57:57;19.50;32.20
59505;DHT22;45321;53.200;5.814;2023-03-14T16:00:24;19.70;31.70
59505;DHT22;45321;53.200;5.814;2023-03-14T16:02:51;20.10;30.70
59505;DHT22;45321;53.200;5.814;2023-03-14T16:05:17;20.40;30.20
59505;DHT22;45321;53.200;5.814;2023-03-14T16:07:45;20.80;29.80
59505;DHT22;45321;53.200;5.814;2023-03-14T16:10:12;20.70;28.70
59505;DHT22;45321;53.200;5.814;2023-03-14T16:12:39;20.90;30.50
59505;DHT22;45321;53.200;5.814;2023-03-14T16:15:05;21.00;29.50
59505;DHT22;45321;53.200;5.814;2023-03-14T16:17:32;21.20;29.80
59505;DHT22;45321;53.200;5.814;2023-03-14T16:19:57;21.00;30.20
59505;DHT22;45321;53.200;5.814;2023-03-14T16:22:23;20.00;30.50
59505;DHT22;45321;53.200;5.814;2023-03-14T16:24:52;19.40;30.60
59505;DHT22;45321;53.200;5.814;2023-03-14T16:27:18;19.20;30.90
59505;DHT22;45321;53.200;5.814;2023-03-14T16:29:44;18.80;32.80
59505;DHT22;45321;53.200;5.814;2023-03-14T16:32:11;18.10;33.80
59505;DHT22;45321;53.200;5.814;2023-03-14T16:34:40;17.30;34.20
59505;DHT22;45321;53.200;5.814;2023-03-14T16:37:06;16.50;35.20
59505;DHT22;45321;53.200;5.814;2023-03-14T16:39:31;15.70;35.00
59505;DHT22;45321;53.200;5.814;2023-03-14T16:41:58;15.10;36.30
59505;DHT22;45321;53.200;5.814;2023-03-14T16:44:24;14.50;36.10
59505;DHT22;45321;53.200;5.814;2023-03-14T16:46:56;14.10;37.80
59505;DHT22;45321;53.200;5.814;2023-03-14T16:49:21;13.80;38.80
59505;DHT22;45321;53.200;5.814;2023-03-14T16:51:47;13.40;41.10